AU-0029 weather

Stirling Range Retreat
Western Australia, Australia

Public forecast

Using degrees Celsius for public forecast. Weather courtesy of forecast.io.

Closest aviation weather report (METAR) to Stirling Range Retreat

Closest report is Albany Airport, 42.2 nm (78.2 km) SSW. Retrieved 2020/02/21 09:00 UTC (58 minutes ago):

YABA 210900Z AUTO 09014KT 9999 // NCD 25/15 Q1016

Closest aviation forecast (TAF) to Stirling Range Retreat

Forecast is more than 6 hours old.

Closest forecast is Perth Jandakot Airport, 176.3 nm (326.5 km) NW. Retrieved 2020-02-21 00:00 UTC (10 hours ago):

TAF YPJT 202324Z 2100/2118 08014KT CAVOK FM211000 10008KT CAVOK